Virtual Futura



 METAR AND TAF INFORMATION
METAR FOR LEXJ
ADDS - METARS form results

(1223 UTC 18 October 2019)
Data provider http://aviationweather.gov/metar/data/
 
METAR text: LEXJ 181200Z 30003KT 250V020 9999 FEW034 SCT060 20/11 Q1015
Conditions at: LEXJ (SANTANDER/PARAYA, ES) observed 1200 UTC 18 October 2019
Temperature: 20.0°C (68°F)
Dewpoint: 11.0°C (52°F) [RH = 56%]
Pressure (altimeter): 29.97 inches Hg (1015.0 mb)
Winds: from the WNW (300 degrees) at 3 MPH (3 knots; 1.5 m/s)
Visibility: 6 or more miles (10+ km)
Ceiling: at least 12,000 feet AGL
Clouds: few clouds at 3400 feet AGL
scattered clouds at 6000 feet AGL
Weather: no significant weather observed at this time

METAR text: LEXJ 181130Z 29006KT 240V360 9999 FEW032 BKN060 19/11 Q1015
Conditions at: LEXJ (SANTANDER/PARAYA, ES) observed 1130 UTC 18 October 2019
Temperature: 19.0°C (66°F)
Dewpoint: 11.0°C (52°F) [RH = 60%]
Pressure (altimeter): 29.97 inches Hg (1015.0 mb)
Winds: from the WNW (290 degrees) at 7 MPH (6 knots; 3.1 m/s)
Visibility: 6 or more miles (10+ km)
Ceiling: 6000 feet AGL
Clouds: few clouds at 3200 feet AGL
broken clouds at 6000 feet AGL
Weather: no significant weather observed at this time

Forecast for: LEXJ (SANTANDER/PARAYA, ES)
Text: TAF LEXJ 180800Z 1809/1909 23005KT 9999 BKN030 TX18/1813Z TN13/1907Z
Forecast period: 0900 UTC 18 October 2019 to 0900 UTC 19 October 2019
Forecast type: FROM: standard forecast or significant change
Winds: from the SW (230 degrees) at 6 MPH (5 knots; 2.6 m/s)
Visibility: 6 or more miles 10+ km)
Ceiling: 3000 feet AGL
Clouds: broken clouds at 3000 feet AGL
Weather: no significant weather forecast for this period
Text: PROB30
Forecast period: 1500 to 1800 UTC 18 October 2019
Forecast type: TEMPORARY: The following changes expected for less than half the time period
Winds: from the NNE (30 degrees) at 12 MPH (10 knots; 5.1 m/s)
Visibility: missing
Ceiling: unknown
Clouds: missing
Weather: no significant weather forecast for this period

 AIRPORT MAP

 RUNWAY INFORMATION
Runway 11 Runway length 7612 ft Runway width 148 ft
Runway elevation 11 ft Runway displaced threshold 0 ft Runway heading 110
Runway 29 Runway length 7612 ft Runway width 148 ft
Runway elevation 12 ft Runway displaced threshold 0 ft Runway heading 290

 AIRPORT FREQUENCIES
Type APP Name APP Frequency 118.375 MHZ
Type GND Name GND Frequency 121.7 MHZ
Type TWR Name TWR Frequency 118.1 MHZ

 AIRPORT NEAR NAVIGATION AIDS
Type NDB Name Santander Frequency 416 KHZ
Type VOR-DME Name Santander Frequency 115300 KHZ

Poltica de Cookies

Esta web utiliza cookies para obtener datos estadsticos de la navegacin de sus usuarios. Si continas navegando consideramos que aceptas su uso. Ms informacin X Cerrar